sensor_id;sensor_type;location;lat;lon;timestamp;temperature;humidity
68387;DHT22;55338;43.062;25.624;2022-07-29T00:02:21;20.80;99.90
68387;DHT22;55338;43.062;25.624;2022-07-29T00:05:05;20.80;99.90
68387;DHT22;55338;43.062;25.624;2022-07-29T00:07:33;20.70;99.90
68387;DHT22;55338;43.062;25.624;2022-07-29T00:09:59;20.80;99.90
68387;DHT22;55338;43.062;25.624;2022-07-29T00:12:34;20.80;99.90
68387;DHT22;55338;43.062;25.624;2022-07-29T00:14:59;20.80;99.90
68387;DHT22;55338;43.062;25.624;2022-07-29T00:17:25;20.80;99.90
68387;DHT22;55338;43.062;25.624;2022-07-29T00:19:51;20.80;99.90
68387;DHT22;55338;43.062;25.624;2022-07-29T00:22:18;20.80;99.90
68387;DHT22;55338;43.062;25.624;2022-07-29T00:24:44;20.80;99.90
68387;DHT22;55338;43.062;25.624;2022-07-29T00:27:10;20.70;99.90
68387;DHT22;55338;43.062;25.624;2022-07-29T00:29:38;20.70;99.90
68387;DHT22;55338;43.062;25.624;2022-07-29T00:32:07;20.70;99.90
68387;DHT22;55338;43.062;25.624;2022-07-29T00:34:51;20.70;99.90
68387;DHT22;55338;43.062;25.624;2022-07-29T00:37:54;20.70;99.90
68387;DHT22;55338;43.062;25.624;2022-07-29T00:40:29;20.70;99.90
68387;DHT22;55338;43.062;25.624;2022-07-29T00:42:54;20.70;99.90
68387;DHT22;55338;43.062;25.624;2022-07-29T00:45:40;20.70;99.90
68387;DHT22;55338;43.062;25.624;2022-07-29T00:48:24;20.70;99.90
68387;DHT22;55338;43.062;25.624;2022-07-29T00:51:08;20.70;99.90
68387;DHT22;55338;43.062;25.624;2022-07-29T00:53:38;20.60;99.90
68387;DHT22;55338;43.062;25.624;2022-07-29T00:56:04;20.50;99.90
68387;DHT22;55338;43.062;25.624;2022-07-29T00:58:30;20.50;99.90
68387;DHT22;55338;43.062;25.624;2022-07-29T01:00:57;20.50;99.90
68387;DHT22;55338;43.062;25.624;2022-07-29T01:03:23;20.50;99.90
68387;DHT22;55338;43.062;25.624;2022-07-29T01:05:49;20.50;99.90
68387;DHT22;55338;43.062;25.624;2022-07-29T01:08:16;20.50;99.90
68387;DHT22;55338;43.062;25.624;2022-07-29T01:10:43;20.50;99.90
68387;DHT22;55338;43.062;25.624;2022-07-29T01:13:10;20.50;99.90
68387;DHT22;55338;43.062;25.624;2022-07-29T01:15:57;20.50;99.90
68387;DHT22;55338;43.062;25.624;2022-07-29T01:18:30;20.30;99.90
68387;DHT22;55338;43.062;25.624;2022-07-29T01:26:33;20.30;99.70
68387;DHT22;55338;43.062;25.624;2022-07-29T01:34:41;20.20;99.20
68387;DHT22;55338;43.062;25.624;2022-07-29T01:37:22;20.20;98.90
68387;DHT22;55338;43.062;25.624;2022-07-29T01:39:52;20.10;99.90
68387;DHT22;55338;43.062;25.624;2022-07-29T01:50:20;20.00;99.90
68387;DHT22;55338;43.062;25.624;2022-07-29T01:52:54;20.00;99.90
68387;DHT22;55338;43.062;25.624;2022-07-29T01:55:31;19.90;99.90
68387;DHT22;55338;43.062;25.624;2022-07-29T01:57:58;19.90;99.90
68387;DHT22;55338;43.062;25.624;2022-07-29T02:00:25;19.90;99.90
68387;DHT22;55338;43.062;25.624;2022-07-29T02:02:53;19.90;99.90
68387;DHT22;55338;43.062;25.624;2022-07-29T02:05:21;19.90;99.90
68387;DHT22;55338;43.062;25.624;2022-07-29T02:07:50;19.90;99.90
68387;DHT22;55338;43.062;25.624;2022-07-29T02:10:19;19.90;99.90
68387;DHT22;55338;43.062;25.624;2022-07-29T02:12:46;20.00;99.90
68387;DHT22;55338;43.062;25.624;2022-07-29T02:15:13;20.00;99.90
68387;DHT22;55338;43.062;25.624;2022-07-29T02:17:52;20.00;99.90
68387;DHT22;55338;43.062;25.624;2022-07-29T02:20:22;19.90;99.90
68387;DHT22;55338;43.062;25.624;2022-07-29T02:22:49;19.90;99.90
68387;DHT22;55338;43.062;25.624;2022-07-29T02:25:16;19.90;99.90
68387;DHT22;55338;43.062;25.624;2022-07-29T02:27:43;19.90;99.90
68387;DHT22;55338;43.062;25.624;2022-07-29T02:30:11;19.90;99.90
68387;DHT22;55338;43.062;25.624;2022-07-29T02:32:39;19.90;99.90
68387;DHT22;55338;43.062;25.624;2022-07-29T02:35:07;19.80;99.90
68387;DHT22;55338;43.062;25.624;2022-07-29T02:37:34;19.80;99.90
68387;DHT22;55338;43.062;25.624;2022-07-29T02:40:01;19.80;99.80
68387;DHT22;55338;43.062;25.624;2022-07-29T02:42:28;19.70;99.70
68387;DHT22;55338;43.062;25.624;2022-07-29T02:44:55;19.70;99.90
68387;DHT22;55338;43.062;25.624;2022-07-29T02:47:41;19.70;99.90
68387;DHT22;55338;43.062;25.624;2022-07-29T02:50:17;19.60;99.90
68387;DHT22;55338;43.062;25.624;2022-07-29T02:52:48;19.50;99.90
68387;DHT22;55338;43.062;25.624;2022-07-29T02:55:33;19.50;99.90
68387;DHT22;55338;43.062;25.624;2022-07-29T03:00:29;19.50;99.90
68387;DHT22;55338;43.062;25.624;2022-07-29T03:02:58;19.40;99.90
68387;DHT22;55338;43.062;25.624;2022-07-29T03:05:25;19.40;99.90
68387;DHT22;55338;43.062;25.624;2022-07-29T03:07:55;19.40;99.90
68387;DHT22;55338;43.062;25.624;2022-07-29T03:10:23;19.40;99.90
68387;DHT22;55338;43.062;25.624;2022-07-29T03:12:50;19.40;99.90
68387;DHT22;55338;43.062;25.624;2022-07-29T03:15:16;19.40;99.90
68387;DHT22;55338;43.062;25.624;2022-07-29T03:17:43;19.40;99.90
68387;DHT22;55338;43.062;25.624;2022-07-29T03:20:10;19.50;99.90
68387;DHT22;55338;43.062;25.624;2022-07-29T03:22:41;19.50;99.90
68387;DHT22;55338;43.062;25.624;2022-07-29T03:25:17;19.40;99.90
68387;DHT22;55338;43.062;25.624;2022-07-29T03:27:43;19.50;99.90
68387;DHT22;55338;43.062;25.624;2022-07-29T03:30:10;19.50;99.90
68387;DHT22;55338;43.062;25.624;2022-07-29T03:32:36;19.50;99.90
68387;DHT22;55338;43.062;25.624;2022-07-29T03:35:03;19.50;99.60
68387;DHT22;55338;43.062;25.624;2022-07-29T03:37:29;19.50;99.00
68387;DHT22;55338;43.062;25.624;2022-07-29T03:39:57;19.50;99.90
68387;DHT22;55338;43.062;25.624;2022-07-29T03:42:30;19.50;99.90
68387;DHT22;55338;43.062;25.624;2022-07-29T03:44:57;19.60;99.90
68387;DHT22;55338;43.062;25.624;2022-07-29T03:47:27;19.60;99.90
68387;DHT22;55338;43.062;25.624;2022-07-29T03:49:56;19.70;99.90
68387;DHT22;55338;43.062;25.624;2022-07-29T03:52:25;19.80;99.90
68387;DHT22;55338;43.062;25.624;2022-07-29T03:54:51;19.90;99.90
68387;DHT22;55338;43.062;25.624;2022-07-29T03:57:20;20.00;99.90
68387;DHT22;55338;43.062;25.624;2022-07-29T03:59:50;20.10;99.40
68387;DHT22;55338;43.062;25.624;2022-07-29T04:02:16;20.20;98.90
68387;DHT22;55338;43.062;25.624;2022-07-29T04:04:42;20.20;98.40
68387;DHT22;55338;43.062;25.624;2022-07-29T04:07:14;20.20;97.90
68387;DHT22;55338;43.062;25.624;2022-07-29T04:09:40;20.20;98.10
68387;DHT22;55338;43.062;25.624;2022-07-29T04:12:06;20.10;98.40
68387;DHT22;55338;43.062;25.624;2022-07-29T04:14:33;20.10;98.90
68387;DHT22;55338;43.062;25.624;2022-07-29T04:17:00;20.20;99.00
68387;DHT22;55338;43.062;25.624;2022-07-29T04:19:26;20.20;98.90
68387;DHT22;55338;43.062;25.624;2022-07-29T04:21:52;20.20;98.60
68387;DHT22;55338;43.062;25.624;2022-07-29T04:24:17;20.30;98.50
68387;DHT22;55338;43.062;25.624;2022-07-29T04:26:46;20.40;98.00
68387;DHT22;55338;43.062;25.624;2022-07-29T04:29:12;20.50;97.40
68387;DHT22;55338;43.062;25.624;2022-07-29T04:31:40;20.60;96.90
68387;DHT22;55338;43.062;25.624;2022-07-29T04:34:06;20.80;96.80
68387;DHT22;55338;43.062;25.624;2022-07-29T04:36:32;20.90;95.40
68387;DHT22;55338;43.062;25.624;2022-07-29T04:38:59;21.10;95.20
68387;DHT22;55338;43.062;25.624;2022-07-29T04:41:27;21.20;94.40
68387;DHT22;55338;43.062;25.624;2022-07-29T04:43:53;21.40;94.40
68387;DHT22;55338;43.062;25.624;2022-07-29T04:46:19;21.60;93.70
68387;DHT22;55338;43.062;25.624;2022-07-29T04:48:45;21.80;91.50
68387;DHT22;55338;43.062;25.624;2022-07-29T04:51:12;21.90;91.10
68387;DHT22;55338;43.062;25.624;2022-07-29T04:53:38;22.00;89.60
68387;DHT22;55338;43.062;25.624;2022-07-29T04:56:04;22.30;89.10
68387;DHT22;55338;43.062;25.624;2022-07-29T04:58:30;22.40;90.00
68387;DHT22;55338;43.062;25.624;2022-07-29T05:00:56;22.50;90.00
68387;DHT22;55338;43.062;25.624;2022-07-29T05:03:21;22.70;90.00
68387;DHT22;55338;43.062;25.624;2022-07-29T05:05:47;22.90;89.50
68387;DHT22;55338;43.062;25.624;2022-07-29T05:08:13;23.00;88.00
68387;DHT22;55338;43.062;25.624;2022-07-29T05:10:39;23.00;86.30
68387;DHT22;55338;43.062;25.624;2022-07-29T05:13:05;23.10;86.50
68387;DHT22;55338;43.062;25.624;2022-07-29T05:15:33;23.10;87.00
68387;DHT22;55338;43.062;25.624;2022-07-29T05:17:59;23.10;86.60
68387;DHT22;55338;43.062;25.624;2022-07-29T05:20:25;23.20;86.70
68387;DHT22;55338;43.062;25.624;2022-07-29T05:22:55;23.40;85.60
68387;DHT22;55338;43.062;25.624;2022-07-29T05:25:21;23.60;84.40
68387;DHT22;55338;43.062;25.624;2022-07-29T05:27:47;23.80;84.20
68387;DHT22;55338;43.062;25.624;2022-07-29T05:30:13;23.90;85.00
68387;DHT22;55338;43.062;25.624;2022-07-29T05:32:38;24.20;82.70
68387;DHT22;55338;43.062;25.624;2022-07-29T05:35:05;24.30;82.80
68387;DHT22;55338;43.062;25.624;2022-07-29T05:37:31;24.40;81.70
68387;DHT22;55338;43.062;25.624;2022-07-29T05:39:57;24.50;81.10
68387;DHT22;55338;43.062;25.624;2022-07-29T05:42:25;24.60;80.40
68387;DHT22;55338;43.062;25.624;2022-07-29T05:44:52;24.80;81.10
68387;DHT22;55338;43.062;25.624;2022-07-29T05:47:18;25.00;79.40
68387;DHT22;55338;43.062;25.624;2022-07-29T05:49:44;25.20;77.80
68387;DHT22;55338;43.062;25.624;2022-07-29T05:52:10;25.30;77.40
68387;DHT22;55338;43.062;25.624;2022-07-29T05:54:36;25.40;75.70
68387;DHT22;55338;43.062;25.624;2022-07-29T05:57:03;25.60;75.40
68387;DHT22;55338;43.062;25.624;2022-07-29T05:59:29;25.80;74.60
68387;DHT22;55338;43.062;25.624;2022-07-29T06:01:54;26.00;75.00
68387;DHT22;55338;43.062;25.624;2022-07-29T06:04:20;26.30;73.20
68387;DHT22;55338;43.062;25.624;2022-07-29T06:06:46;26.50;73.60
68387;DHT22;55338;43.062;25.624;2022-07-29T06:09:12;26.80;70.50
68387;DHT22;55338;43.062;25.624;2022-07-29T06:11:38;27.00;70.40
68387;DHT22;55338;43.062;25.624;2022-07-29T06:14:04;27.30;69.20
68387;DHT22;55338;43.062;25.624;2022-07-29T06:16:29;27.60;69.90
68387;DHT22;55338;43.062;25.624;2022-07-29T06:18:55;27.90;66.30
68387;DHT22;55338;43.062;25.624;2022-07-29T06:21:21;28.10;66.10
68387;DHT22;55338;43.062;25.624;2022-07-29T06:23:47;28.50;63.50
68387;DHT22;55338;43.062;25.624;2022-07-29T06:26:12;28.50;63.60
68387;DHT22;55338;43.062;25.624;2022-07-29T06:28:38;28.80;62.50
68387;DHT22;55338;43.062;25.624;2022-07-29T06:31:05;29.00;62.60
68387;DHT22;55338;43.062;25.624;2022-07-29T06:33:31;29.40;62.00
68387;DHT22;55338;43.062;25.624;2022-07-29T06:35:56;29.70;61.40
68387;DHT22;55338;43.062;25.624;2022-07-29T06:38:22;29.90;59.80
68387;DHT22;55338;43.062;25.624;2022-07-29T06:40:48;30.10;58.60
68387;DHT22;55338;43.062;25.624;2022-07-29T06:43:35;30.40;56.40
68387;DHT22;55338;43.062;25.624;2022-07-29T06:46:07;30.70;55.40
68387;DHT22;55338;43.062;25.624;2022-07-29T06:48:35;30.90;53.20
68387;DHT22;55338;43.062;25.624;2022-07-29T06:51:02;31.20;52.60
68387;DHT22;55338;43.062;25.624;2022-07-29T06:53:29;31.40;52.40
68387;DHT22;55338;43.062;25.624;2022-07-29T06:55:56;31.60;51.40
68387;DHT22;55338;43.062;25.624;2022-07-29T06:58:24;31.90;50.60
68387;DHT22;55338;43.062;25.624;2022-07-29T07:00:49;32.20;50.20
68387;DHT22;55338;43.062;25.624;2022-07-29T07:03:16;32.50;48.30
68387;DHT22;55338;43.062;25.624;2022-07-29T07:05:43;32.70;48.00
68387;DHT22;55338;43.062;25.624;2022-07-29T07:08:09;32.80;46.30
68387;DHT22;55338;43.062;25.624;2022-07-29T07:10:35;33.00;46.70
68387;DHT22;55338;43.062;25.624;2022-07-29T07:13:03;33.10;45.80
68387;DHT22;55338;43.062;25.624;2022-07-29T07:15:29;33.30;44.60
68387;DHT22;55338;43.062;25.624;2022-07-29T07:17:55;33.60;43.20
68387;DHT22;55338;43.062;25.624;2022-07-29T07:20:21;34.00;42.60
68387;DHT22;55338;43.062;25.624;2022-07-29T07:22:47;34.30;41.00
68387;DHT22;55338;43.062;25.624;2022-07-29T07:25:13;34.60;40.80
68387;DHT22;55338;43.062;25.624;2022-07-29T07:27:39;35.00;41.70
68387;DHT22;55338;43.062;25.624;2022-07-29T07:30:06;35.10;40.70
68387;DHT22;55338;43.062;25.624;2022-07-29T07:32:35;35.30;39.90
68387;DHT22;55338;43.062;25.624;2022-07-29T07:35:02;35.40;38.00
68387;DHT22;55338;43.062;25.624;2022-07-29T07:37:27;35.40;38.00
68387;DHT22;55338;43.062;25.624;2022-07-29T07:39:53;35.40;39.20
68387;DHT22;55338;43.062;25.624;2022-07-29T07:42:20;35.60;35.00
68387;DHT22;55338;43.062;25.624;2022-07-29T07:44:46;35.70;33.80
68387;DHT22;55338;43.062;25.624;2022-07-29T07:47:14;36.00;33.80
68387;DHT22;55338;43.062;25.624;2022-07-29T07:49:40;36.40;31.60
68387;DHT22;55338;43.062;25.624;2022-07-29T07:52:06;36.70;29.90
68387;DHT22;55338;43.062;25.624;2022-07-29T07:54:32;37.10;28.20
68387;DHT22;55338;43.062;25.624;2022-07-29T07:56:58;37.10;27.20
68387;DHT22;55338;43.062;25.624;2022-07-29T07:59:25;37.20;28.60
68387;DHT22;55338;43.062;25.624;2022-07-29T08:01:50;37.50;27.20
68387;DHT22;55338;43.062;25.624;2022-07-29T08:04:16;37.70;26.40
68387;DHT22;55338;43.062;25.624;2022-07-29T08:06:42;38.00;26.30
68387;DHT22;55338;43.062;25.624;2022-07-29T08:09:08;38.10;26.30
68387;DHT22;55338;43.062;25.624;2022-07-29T08:11:33;38.20;26.10
68387;DHT22;55338;43.062;25.624;2022-07-29T08:13:59;38.20;26.40
68387;DHT22;55338;43.062;25.624;2022-07-29T08:16:27;38.50;25.00
68387;DHT22;55338;43.062;25.624;2022-07-29T08:18:53;38.70;24.50
68387;DHT22;55338;43.062;25.624;2022-07-29T08:21:23;39.00;25.40
68387;DHT22;55338;43.062;25.624;2022-07-29T08:23:49;39.20;25.80
68387;DHT22;55338;43.062;25.624;2022-07-29T08:26:18;39.20;22.90
68387;DHT22;55338;43.062;25.624;2022-07-29T08:28:45;39.40;24.20
68387;DHT22;55338;43.062;25.624;2022-07-29T08:31:12;39.80;23.30
68387;DHT22;55338;43.062;25.624;2022-07-29T08:33:39;39.80;23.10
68387;DHT22;55338;43.062;25.624;2022-07-29T08:36:05;40.00;22.60
68387;DHT22;55338;43.062;25.624;2022-07-29T08:38:31;39.50;22.00
68387;DHT22;55338;43.062;25.624;2022-07-29T08:40:59;39.80;21.70
68387;DHT22;55338;43.062;25.624;2022-07-29T08:43:25;39.80;21.40
68387;DHT22;55338;43.062;25.624;2022-07-29T08:45:51;39.70;22.10
68387;DHT22;55338;43.062;25.624;2022-07-29T08:48:24;39.50;22.50
68387;DHT22;55338;43.062;25.624;2022-07-29T08:50:55;39.70;22.00
68387;DHT22;55338;43.062;25.624;2022-07-29T08:53:21;40.20;21.90
68387;DHT22;55338;43.062;25.624;2022-07-29T08:55:50;40.40;21.80
68387;DHT22;55338;43.062;25.624;2022-07-29T08:58:16;40.60;20.90
68387;DHT22;55338;43.062;25.624;2022-07-29T09:00:47;41.00;21.10
68387;DHT22;55338;43.062;25.624;2022-07-29T09:03:17;40.80;19.60
68387;DHT22;55338;43.062;25.624;2022-07-29T09:05:45;40.30;20.70
68387;DHT22;55338;43.062;25.624;2022-07-29T09:08:12;40.60;20.40
68387;DHT22;55338;43.062;25.624;2022-07-29T09:10:39;40.70;20.30
68387;DHT22;55338;43.062;25.624;2022-07-29T09:13:05;41.00;20.50
68387;DHT22;55338;43.062;25.624;2022-07-29T09:15:31;41.00;19.90
68387;DHT22;55338;43.062;25.624;2022-07-29T09:17:57;41.50;19.60
68387;DHT22;55338;43.062;25.624;2022-07-29T09:20:28;41.80;17.90
68387;DHT22;55338;43.062;25.624;2022-07-29T09:23:13;41.80;19.40
68387;DHT22;55338;43.062;25.624;2022-07-29T09:25:40;41.80;17.80
68387;DHT22;55338;43.062;25.624;2022-07-29T09:28:13;42.00;18.10
68387;DHT22;55338;43.062;25.624;2022-07-29T09:30:53;42.00;18.10
68387;DHT22;55338;43.062;25.624;2022-07-29T09:33:20;41.70;19.00
68387;DHT22;55338;43.062;25.624;2022-07-29T09:36:07;41.70;17.60
68387;DHT22;55338;43.062;25.624;2022-07-29T09:38:35;42.00;17.60
68387;DHT22;55338;43.062;25.624;2022-07-29T09:41:03;42.40;16.70
68387;DHT22;55338;43.062;25.624;2022-07-29T09:43:30;42.30;17.00
68387;DHT22;55338;43.062;25.624;2022-07-29T09:45:56;42.70;16.40
68387;DHT22;55338;43.062;25.624;2022-07-29T09:48:24;43.10;16.20
68387;DHT22;55338;43.062;25.624;2022-07-29T09:50:51;43.00;17.20
68387;DHT22;55338;43.062;25.624;2022-07-29T09:53:31;42.70;16.90
68387;DHT22;55338;43.062;25.624;2022-07-29T09:55:57;42.50;16.10
68387;DHT22;55338;43.062;25.624;2022-07-29T09:58:23;41.80;16.80
68387;DHT22;55338;43.062;25.624;2022-07-29T10:00:51;40.90;18.10
68387;DHT22;55338;43.062;25.624;2022-07-29T10:03:17;40.70;19.50
68387;DHT22;55338;43.062;25.624;2022-07-29T10:05:44;41.10;18.80
68387;DHT22;55338;43.062;25.624;2022-07-29T10:08:11;41.20;18.70
68387;DHT22;55338;43.062;25.624;2022-07-29T10:10:42;41.70;18.60
68387;DHT22;55338;43.062;25.624;2022-07-29T10:13:12;42.30;18.00
68387;DHT22;55338;43.062;25.624;2022-07-29T10:15:41;42.60;17.60
68387;DHT22;55338;43.062;25.624;2022-07-29T10:18:10;43.00;17.30
68387;DHT22;55338;43.062;25.624;2022-07-29T10:20:37;42.20;17.60
68387;DHT22;55338;43.062;25.624;2022-07-29T10:23:03;41.80;17.50
68387;DHT22;55338;43.062;25.624;2022-07-29T10:25:29;41.90;17.50
68387;DHT22;55338;43.062;25.624;2022-07-29T10:27:56;42.40;18.20
68387;DHT22;55338;43.062;25.624;2022-07-29T10:30:23;42.70;16.80
68387;DHT22;55338;43.062;25.624;2022-07-29T10:41:33;42.90;16.10
68387;DHT22;55338;43.062;25.624;2022-07-29T10:44:09;43.40;15.20
68387;DHT22;55338;43.062;25.624;2022-07-29T10:46:39;43.00;17.00
68387;DHT22;55338;43.062;25.624;2022-07-29T10:49:16;42.60;17.10
68387;DHT22;55338;43.062;25.624;2022-07-29T10:51:56;42.10;17.60
68387;DHT22;55338;43.062;25.624;2022-07-29T10:54:43;41.90;17.00
68387;DHT22;55338;43.062;25.624;2022-07-29T10:59:49;43.10;17.50
68387;DHT22;55338;43.062;25.624;2022-07-29T11:05:03;43.70;15.80
68387;DHT22;55338;43.062;25.624;2022-07-29T11:07:31;43.40;15.50
68387;DHT22;55338;43.062;25.624;2022-07-29T11:15:05;43.20;16.40
68387;DHT22;55338;43.062;25.624;2022-07-29T11:31:45;42.30;17.30
68387;DHT22;55338;43.062;25.624;2022-07-29T11:34:30;43.00;17.40
68387;DHT22;55338;43.062;25.624;2022-07-29T11:39:38;42.40;17.50
68387;DHT22;55338;43.062;25.624;2022-07-29T11:47:25;41.30;17.00
68387;DHT22;55338;43.062;25.624;2022-07-29T11:49:52;42.00;17.50
68387;DHT22;55338;43.062;25.624;2022-07-29T11:52:19;42.20;17.70
68387;DHT22;55338;43.062;25.624;2022-07-29T11:54:48;42.40;16.90
68387;DHT22;55338;43.062;25.624;2022-07-29T11:57:16;42.60;16.20
68387;DHT22;55338;43.062;25.624;2022-07-29T11:59:44;42.80;16.20
68387;DHT22;55338;43.062;25.624;2022-07-29T12:02:10;43.50;15.80
68387;DHT22;55338;43.062;25.624;2022-07-29T12:04:55;43.60;16.50
68387;DHT22;55338;43.062;25.624;2022-07-29T12:07:31;43.30;15.50
68387;DHT22;55338;43.062;25.624;2022-07-29T12:09:57;43.70;15.00
68387;DHT22;55338;43.062;25.624;2022-07-29T12:12:24;43.90;15.50
68387;DHT22;55338;43.062;25.624;2022-07-29T12:14:51;43.80;15.20
68387;DHT22;55338;43.062;25.624;2022-07-29T12:17:33;43.90;15.60
68387;DHT22;55338;43.062;25.624;2022-07-29T12:20:01;44.20;15.90
68387;DHT22;55338;43.062;25.624;2022-07-29T12:22:39;44.20;15.70
68387;DHT22;55338;43.062;25.624;2022-07-29T12:25:11;44.40;15.90
68387;DHT22;55338;43.062;25.624;2022-07-29T12:27:40;44.30;15.30
68387;DHT22;55338;43.062;25.624;2022-07-29T12:30:07;43.70;15.00
68387;DHT22;55338;43.062;25.624;2022-07-29T12:32:47;43.60;16.10
68387;DHT22;55338;43.062;25.624;2022-07-29T12:35:16;43.70;15.90
68387;DHT22;55338;43.062;25.624;2022-07-29T12:37:43;43.70;15.80
68387;DHT22;55338;43.062;25.624;2022-07-29T12:40:11;43.80;14.90
68387;DHT22;55338;43.062;25.624;2022-07-29T12:42:38;43.70;15.30
68387;DHT22;55338;43.062;25.624;2022-07-29T12:45:05;43.80;15.30
68387;DHT22;55338;43.062;25.624;2022-07-29T12:47:31;43.80;15.70
68387;DHT22;55338;43.062;25.624;2022-07-29T12:50:14;43.80;15.80
68387;DHT22;55338;43.062;25.624;2022-07-29T12:52:44;43.70;16.20
68387;DHT22;55338;43.062;25.624;2022-07-29T12:55:11;43.60;16.20
68387;DHT22;55338;43.062;25.624;2022-07-29T12:57:47;43.70;15.80
68387;DHT22;55338;43.062;25.624;2022-07-29T13:00:14;43.50;15.80
68387;DHT22;55338;43.062;25.624;2022-07-29T13:02:42;42.90;16.90
68387;DHT22;55338;43.062;25.624;2022-07-29T13:05:10;43.00;17.20
68387;DHT22;55338;43.062;25.624;2022-07-29T13:07:37;43.50;15.60
68387;DHT22;55338;43.062;25.624;2022-07-29T13:10:15;43.60;15.20
68387;DHT22;55338;43.062;25.624;2022-07-29T13:15:31;43.60;15.20
68387;DHT22;55338;43.062;25.624;2022-07-29T13:17:57;43.00;16.50
68387;DHT22;55338;43.062;25.624;2022-07-29T13:20:28;43.30;14.90
68387;DHT22;55338;43.062;25.624;2022-07-29T13:22:56;43.80;15.40
68387;DHT22;55338;43.062;25.624;2022-07-29T13:25:30;44.00;14.10
68387;DHT22;55338;43.062;25.624;2022-07-29T13:27:58;43.90;14.30
68387;DHT22;55338;43.062;25.624;2022-07-29T13:30:24;44.20;14.80
68387;DHT22;55338;43.062;25.624;2022-07-29T13:32:52;43.10;16.50
68387;DHT22;55338;43.062;25.624;2022-07-29T13:35:19;42.90;16.10
68387;DHT22;55338;43.062;25.624;2022-07-29T13:37:45;42.20;16.50
68387;DHT22;55338;43.062;25.624;2022-07-29T13:40:12;41.90;16.10
68387;DHT22;55338;43.062;25.624;2022-07-29T13:42:38;42.50;16.60
68387;DHT22;55338;43.062;25.624;2022-07-29T13:45:05;42.70;16.10
68387;DHT22;55338;43.062;25.624;2022-07-29T13:47:32;42.90;15.90
68387;DHT22;55338;43.062;25.624;2022-07-29T13:49:57;43.00;16.10
68387;DHT22;55338;43.062;25.624;2022-07-29T13:52:23;42.80;16.20
68387;DHT22;55338;43.062;25.624;2022-07-29T13:54:49;43.30;15.80
68387;DHT22;55338;43.062;25.624;2022-07-29T13:57:15;43.30;16.20
68387;DHT22;55338;43.062;25.624;2022-07-29T13:59:42;43.40;16.00
68387;DHT22;55338;43.062;25.624;2022-07-29T14:02:09;43.70;14.90
68387;DHT22;55338;43.062;25.624;2022-07-29T14:04:35;43.70;14.40
68387;DHT22;55338;43.062;25.624;2022-07-29T14:07:02;43.80;14.20
68387;DHT22;55338;43.062;25.624;2022-07-29T14:09:27;44.10;14.60
68387;DHT22;55338;43.062;25.624;2022-07-29T14:11:53;43.80;14.00
68387;DHT22;55338;43.062;25.624;2022-07-29T14:14:19;43.80;14.30
68387;DHT22;55338;43.062;25.624;2022-07-29T14:16:45;43.90;13.60
68387;DHT22;55338;43.062;25.624;2022-07-29T14:19:11;44.10;13.90
68387;DHT22;55338;43.062;25.624;2022-07-29T14:21:38;44.30;13.60
68387;DHT22;55338;43.062;25.624;2022-07-29T14:24:04;44.30;13.50
68387;DHT22;55338;43.062;25.624;2022-07-29T14:26:30;44.20;14.10
68387;DHT22;55338;43.062;25.624;2022-07-29T14:28:56;43.70;14.30
68387;DHT22;55338;43.062;25.624;2022-07-29T14:31:22;43.00;15.10
68387;DHT22;55338;43.062;25.624;2022-07-29T14:33:48;42.10;16.40
68387;DHT22;55338;43.062;25.624;2022-07-29T14:36:13;41.80;15.90
68387;DHT22;55338;43.062;25.624;2022-07-29T14:38:39;41.80;16.40
68387;DHT22;55338;43.062;25.624;2022-07-29T14:41:06;42.00;16.50
68387;DHT22;55338;43.062;25.624;2022-07-29T14:43:33;41.90;16.30
68387;DHT22;55338;43.062;25.624;2022-07-29T14:46:00;42.20;17.00
68387;DHT22;55338;43.062;25.624;2022-07-29T14:48:26;42.20;16.40
68387;DHT22;55338;43.062;25.624;2022-07-29T14:50:52;42.00;16.60
68387;DHT22;55338;43.062;25.624;2022-07-29T14:53:18;42.10;16.50
68387;DHT22;55338;43.062;25.624;2022-07-29T14:55:44;41.90;15.90
68387;DHT22;55338;43.062;25.624;2022-07-29T14:58:10;41.20;17.50
68387;DHT22;55338;43.062;25.624;2022-07-29T15:00:36;40.40;19.50
68387;DHT22;55338;43.062;25.624;2022-07-29T15:03:03;39.90;19.40
68387;DHT22;55338;43.062;25.624;2022-07-29T15:05:30;39.40;20.50
68387;DHT22;55338;43.062;25.624;2022-07-29T15:07:56;38.90;21.30
68387;DHT22;55338;43.062;25.624;2022-07-29T15:10:22;38.80;21.90
68387;DHT22;55338;43.062;25.624;2022-07-29T15:12:48;38.70;22.30
68387;DHT22;55338;43.062;25.624;2022-07-29T15:15:14;38.60;22.50
68387;DHT22;55338;43.062;25.624;2022-07-29T15:17:39;38.40;22.90
68387;DHT22;55338;43.062;25.624;2022-07-29T15:20:06;38.40;23.40
68387;DHT22;55338;43.062;25.624;2022-07-29T15:22:32;38.20;23.50
68387;DHT22;55338;43.062;25.624;2022-07-29T15:24:57;38.20;23.90
68387;DHT22;55338;43.062;25.624;2022-07-29T15:27:23;38.20;23.90
68387;DHT22;55338;43.062;25.624;2022-07-29T15:29:49;38.10;23.80
68387;DHT22;55338;43.062;25.624;2022-07-29T15:32:15;37.90;24.30
68387;DHT22;55338;43.062;25.624;2022-07-29T15:34:40;37.70;24.40
68387;DHT22;55338;43.062;25.624;2022-07-29T15:37:06;37.70;24.90
68387;DHT22;55338;43.062;25.624;2022-07-29T15:39:32;37.60;25.00
68387;DHT22;55338;43.062;25.624;2022-07-29T15:41:58;37.60;25.10
68387;DHT22;55338;43.062;25.624;2022-07-29T15:44:27;37.40;25.50
68387;DHT22;55338;43.062;25.624;2022-07-29T15:46:53;37.30;25.80
68387;DHT22;55338;43.062;25.624;2022-07-29T15:49:32;37.20;26.00
68387;DHT22;55338;43.062;25.624;2022-07-29T15:52:00;37.00;26.30
68387;DHT22;55338;43.062;25.624;2022-07-29T15:54:27;36.90;25.90
68387;DHT22;55338;43.062;25.624;2022-07-29T15:56:53;36.80;26.30
68387;DHT22;55338;43.062;25.624;2022-07-29T15:59:20;36.70;26.50
68387;DHT22;55338;43.062;25.624;2022-07-29T16:01:46;36.60;26.90
68387;DHT22;55338;43.062;25.624;2022-07-29T16:04:12;36.60;27.10
68387;DHT22;55338;43.062;25.624;2022-07-29T16:06:37;36.40;27.40
68387;DHT22;55338;43.062;25.624;2022-07-29T16:09:04;36.40;27.70
68387;DHT22;55338;43.062;25.624;2022-07-29T16:11:30;36.40;27.70
68387;DHT22;55338;43.062;25.624;2022-07-29T16:13:55;36.30;27.90
68387;DHT22;55338;43.062;25.624;2022-07-29T16:16:21;36.10;28.50
68387;DHT22;55338;43.062;25.624;2022-07-29T16:18:47;36.10;29.00
68387;DHT22;55338;43.062;25.624;2022-07-29T16:21:13;35.90;28.80
68387;DHT22;55338;43.062;25.624;2022-07-29T16:23:39;35.90;29.20
68387;DHT22;55338;43.062;25.624;2022-07-29T16:26:05;35.80;29.40
68387;DHT22;55338;43.062;25.624;2022-07-29T16:28:32;35.70;29.90